createdAt,value
2022-09-15T00:03:36.870Z,24.73
2022-09-15T00:07:54.041Z,50.90
2022-09-15T00:12:11.309Z,65.20
2022-09-15T00:16:31.070Z,66.72
2022-09-15T00:20:48.438Z,19.05
2022-09-15T00:25:06.031Z,28.55
2022-09-15T00:29:23.143Z,36.75
2022-09-15T00:33:40.536Z,36.58
2022-09-15T00:37:57.679Z,35.85
2022-09-15T00:42:20.346Z,63.08
2022-09-15T00:46:41.013Z,47.25
2022-09-15T00:50:59.848Z,49.50
2022-09-15T00:55:28.231Z,68.35
2022-09-15T00:59:46.810Z,60.27
2022-09-15T01:04:04.057Z,48.92
2022-09-15T01:08:38.545Z,60.38
2022-09-15T01:13:01.042Z,113.78
2022-09-15T01:18:03.034Z,209.18
2022-09-15T01:22:57.610Z,111.22
2022-09-15T01:27:43.228Z,295.85
2022-09-15T01:32:36.473Z,100.88
2022-09-15T01:37:03.425Z,103.10
2022-09-15T01:41:46.709Z,201.60
2022-09-15T01:46:04.658Z,185.48
2022-09-15T01:50:28.447Z,92.88
2022-09-15T01:54:49.136Z,182.75
2022-09-15T01:59:06.400Z,209.23
2022-09-15T02:03:33.764Z,181.60
2022-09-15T02:08:05.148Z,137.45
2022-09-15T02:12:33.929Z,134.30
2022-09-15T02:16:54.257Z,144.73
2022-09-15T02:21:20.434Z,299.08
2022-09-15T02:25:43.977Z,230.52
2022-09-15T02:30:06.647Z,434.63
2022-09-15T02:34:29.272Z,252.90
2022-09-15T02:38:54.984Z,329.23
2022-09-15T02:43:14.589Z,261.13
2022-09-15T02:47:32.067Z,271.83
2022-09-15T02:51:49.191Z,210.35
2022-09-15T02:56:06.670Z,215.82
2022-09-15T03:00:24.298Z,223.98
2022-09-15T03:04:41.383Z,185.82
2022-09-15T03:08:58.802Z,307.83
2022-09-15T03:13:15.886Z,195.05
2022-09-15T03:17:37.176Z,417.50
2022-09-15T03:21:54.330Z,202.48
2022-09-15T03:26:11.803Z,133.13
2022-09-15T03:30:28.946Z,182.10
2022-09-15T03:34:46.118Z,24.08
2022-09-15T03:39:03.464Z,368.20
2022-09-15T03:43:20.830Z,190.65
2022-09-15T03:47:37.952Z,216.38
2022-09-15T03:51:55.406Z,215.38
2022-09-15T03:56:27.192Z,168.02
2022-09-15T04:00:45.871Z,157.82
2022-09-15T04:05:03.120Z,178.82
2022-09-15T04:09:21.567Z,199.27
2022-09-15T04:13:39.787Z,190.93
2022-09-15T04:17:56.907Z,221.17
2022-09-15T04:22:17.702Z,198.93
2022-09-15T04:26:36.823Z,218.95
2022-09-15T04:31:02.354Z,192.35
2022-09-15T04:35:21.914Z,197.80
2022-09-15T04:39:39.117Z,542.90
2022-09-15T04:43:56.638Z,198.15
2022-09-15T04:48:13.830Z,257.30
2022-09-15T04:52:31.586Z,250.80
2022-09-15T04:56:49.348Z,203.10
2022-09-15T05:01:11.729Z,221.30
2022-09-15T05:05:29.022Z,268.40
2022-09-15T05:09:46.117Z,229.15
2022-09-15T05:14:03.316Z,325.27
2022-09-15T05:18:20.592Z,277.05
2022-09-15T05:22:41.624Z,257.60
2022-09-15T05:26:59.135Z,288.20
2022-09-15T05:31:25.499Z,156.88
2022-09-15T05:35:53.423Z,252.43
2022-09-15T05:40:10.861Z,264.20
2022-09-15T05:44:28.054Z,203.52
2022-09-15T05:48:45.806Z,283.20
2022-09-15T05:53:03.208Z,353.15
2022-09-15T05:57:20.518Z,158.15
2022-09-15T06:01:38.052Z,244.40
2022-09-15T06:06:02.861Z,177.98
2022-09-15T06:10:20.451Z,192.95
2022-09-15T06:14:37.678Z,185.15
2022-09-15T06:18:54.830Z,186.52
2022-09-15T06:23:12.006Z,156.55
2022-09-15T06:27:29.193Z,205.68
2022-09-15T06:31:46.389Z,127.88
2022-09-15T06:36:03.664Z,95.25
2022-09-15T06:40:21.621Z,231.02
2022-09-15T06:44:38.921Z,156.70
2022-09-15T06:48:56.384Z,135.73
2022-09-15T06:53:13.496Z,68.82
2022-09-15T06:57:30.717Z,110.28
2022-09-15T07:01:51.615Z,105.90
2022-09-15T07:06:09.992Z,81.63
2022-09-15T07:10:27.195Z,105.68
2022-09-15T07:14:44.503Z,71.53
2022-09-15T07:19:03.621Z,46.70
2022-09-15T07:23:20.822Z,55.33
2022-09-15T07:27:38.001Z,37.70
2022-09-15T07:31:55.178Z,53.08
2022-09-15T07:36:12.565Z,61.45
2022-09-15T07:40:30.225Z,70.53
2022-09-15T07:44:47.429Z,50.25
2022-09-15T07:49:04.755Z,48.65
2022-09-15T07:53:22.853Z,36.65
2022-09-15T07:57:40.067Z,36.27
2022-09-15T08:01:57.221Z,43.45
2022-09-15T08:06:16.415Z,39.70
2022-09-15T08:10:34.017Z,38.55
2022-09-15T08:14:51.157Z,39.78
2022-09-15T08:19:08.400Z,31.08
2022-09-15T08:23:25.539Z,23.20
2022-09-15T08:27:43.089Z,36.47
2022-09-15T08:32:00.552Z,29.80
2022-09-15T08:36:18.187Z,19.83
2022-09-15T08:40:37.990Z,29.55
2022-09-15T08:45:08.101Z,26.83
2022-09-15T08:49:53.532Z,29.40
2022-09-15T08:54:18.766Z,25.52
2022-09-15T08:58:37.697Z,25.63
2022-09-15T09:07:52.313Z,22.20
2022-09-15T09:12:34.372Z,24.98
2022-09-15T09:17:02.732Z,22.02
2022-09-15T09:21:26.711Z,20.50
2022-09-15T09:25:44.838Z,26.65
2022-09-15T09:30:12.896Z,20.30
2022-09-15T09:34:56.026Z,16.45
2022-09-15T09:39:16.173Z,21.20
2022-09-15T09:43:33.397Z,28.27
2022-09-15T09:47:50.528Z,20.88
2022-09-15T09:52:07.712Z,21.58
2022-09-15T09:56:26.789Z,19.05
2022-09-15T10:00:44.040Z,25.40
2022-09-15T10:05:05.732Z,26.73
2022-09-15T10:09:23.015Z,28.27
2022-09-15T10:13:54.823Z,22.48
2022-09-15T10:18:27.235Z,19.70
2022-09-15T10:22:44.426Z,19.85
2022-09-15T10:27:41.061Z,18.50
2022-09-15T10:32:15.271Z,17.88
2022-09-15T10:36:32.542Z,16.05
2022-09-15T10:41:03.376Z,9.52
2022-09-15T10:45:23.805Z,14.52
2022-09-15T10:49:48.793Z,13.15
2022-09-15T10:54:36.182Z,12.10
2022-09-15T10:59:17.891Z,8.30
2022-09-15T11:03:56.881Z,8.88
2022-09-15T11:08:26.316Z,13.00
2022-09-15T11:12:56.283Z,14.77
2022-09-15T11:17:22.873Z,9.55
2022-09-15T11:21:46.298Z,12.98
2022-09-15T11:26:14.472Z,9.20
2022-09-15T11:30:51.749Z,8.52
2022-09-15T11:35:26.662Z,9.20
2022-09-15T11:40:13.642Z,7.70
2022-09-15T11:44:34.745Z,7.55
2022-09-15T11:49:06.634Z,10.95
2022-09-15T11:53:33.608Z,11.43
2022-09-15T11:57:58.796Z,8.23
2022-09-15T12:02:31.794Z,7.22
2022-09-15T12:06:57.969Z,6.38
2022-09-15T12:11:22.100Z,8.32
2022-09-15T12:15:39.538Z,6.53
2022-09-15T12:20:30.271Z,6.55
2022-09-15T12:25:01.822Z,4.70
2022-09-15T12:29:21.769Z,5.88
2022-09-15T12:34:17.219Z,14.20
2022-09-15T12:38:34.382Z,9.40
2022-09-15T12:42:51.667Z,9.35
2022-09-15T12:47:24.168Z,7.50
2022-09-15T12:51:49.785Z,9.60
2022-09-15T12:56:11.595Z,6.78
2022-09-15T13:00:42.305Z,8.38
2022-09-15T13:05:11.638Z,7.57
2022-09-15T13:09:29.037Z,5.28
2022-09-15T13:14:06.866Z,3.78
2022-09-15T13:18:25.081Z,7.55
2022-09-15T13:22:47.085Z,4.93
2022-09-15T13:27:06.297Z,6.20
2022-09-15T13:32:13.622Z,7.15
2022-09-15T13:41:56.577Z,8.65
2022-09-15T13:46:37.754Z,9.07
2022-09-15T13:51:03.815Z,9.00
2022-09-15T13:55:27.708Z,5.45
2022-09-15T13:59:44.866Z,6.57
2022-09-15T14:04:07.080Z,5.50
2022-09-15T14:08:30.310Z,6.20
2022-09-15T14:12:47.969Z,6.47
2022-09-15T14:17:05.290Z,5.93
2022-09-15T14:21:29.586Z,5.10
2022-09-15T14:25:46.910Z,5.97
2022-09-15T14:30:07.516Z,9.63
2022-09-15T14:34:28.305Z,5.13
2022-09-15T14:39:03.833Z,8.38
2022-09-15T14:43:42.000Z,4.60
2022-09-15T14:48:01.628Z,7.30
2022-09-15T14:52:28.501Z,5.05
2022-09-15T14:56:47.644Z,5.15
2022-09-15T15:01:17.189Z,6.32
2022-09-15T15:05:40.833Z,7.85
2022-09-15T15:10:21.756Z,7.78
2022-09-15T15:14:39.111Z,6.60
2022-09-15T15:18:57.212Z,6.13
2022-09-15T15:23:22.086Z,3.70
2022-09-15T15:27:45.809Z,7.35
2022-09-15T15:32:15.082Z,5.63
2022-09-15T15:36:35.448Z,5.90
2022-09-15T15:41:01.479Z,6.38
2022-09-15T15:45:25.145Z,5.95
2022-09-15T15:50:02.351Z,7.82
2022-09-15T15:54:19.675Z,12.23
2022-09-15T15:58:36.821Z,7.13
2022-09-15T16:02:54.151Z,3.70
2022-09-15T16:07:17.733Z,2.35
2022-09-15T16:11:34.903Z,4.30
2022-09-15T16:16:00.061Z,5.47
2022-09-15T16:20:19.629Z,6.10
2022-09-15T16:24:36.897Z,7.30
2022-09-15T16:28:54.207Z,3.53
2022-09-15T16:33:16.357Z,4.80
2022-09-15T16:37:33.471Z,3.83
2022-09-15T16:41:50.702Z,4.78
2022-09-15T16:46:10.116Z,6.65
2022-09-15T16:50:28.537Z,6.88
2022-09-15T16:54:45.757Z,7.72
2022-09-15T16:59:03.077Z,4.65
2022-09-15T17:03:23.800Z,6.00
2022-09-15T17:07:41.115Z,6.60
2022-09-15T17:11:58.328Z,7.22
2022-09-15T17:16:19.284Z,3.70
2022-09-15T17:20:39.430Z,5.22
2022-09-15T17:24:56.679Z,5.35
2022-09-15T17:29:13.869Z,5.35
2022-09-15T17:33:32.433Z,4.82
2022-09-15T17:37:50.390Z,3.38
2022-09-15T17:42:09.568Z,6.65
2022-09-15T17:46:26.787Z,9.80
2022-09-15T17:50:45.349Z,3.97
2022-09-15T17:55:02.984Z,3.70
2022-09-15T17:59:20.097Z,5.65
2022-09-15T18:03:37.603Z,6.43
2022-09-15T18:07:59.702Z,3.25
2022-09-15T18:12:17.919Z,3.80
2022-09-15T18:16:35.078Z,4.70
2022-09-15T18:20:53.781Z,6.50
2022-09-15T18:25:20.132Z,3.55
2022-09-15T18:29:37.377Z,7.57
2022-09-15T18:33:54.573Z,5.75
2022-09-15T18:38:12.453Z,5.53
2022-09-15T18:42:31.849Z,4.75
2022-09-15T18:46:49.279Z,5.15
2022-09-15T18:51:10.789Z,5.97
2022-09-15T18:55:29.152Z,5.93
2022-09-15T18:59:47.474Z,5.05
2022-09-15T19:04:04.618Z,5.53
2022-09-15T19:08:22.925Z,5.93
2022-09-15T19:12:40.132Z,6.05
2022-09-15T19:16:58.608Z,4.38
2022-09-15T19:21:15.996Z,5.72
2022-09-15T19:25:33.302Z,7.22
2022-09-15T19:29:51.088Z,4.22
2022-09-15T19:34:08.253Z,4.68
2022-09-15T19:38:25.384Z,5.20
2022-09-15T19:42:43.939Z,4.63
2022-09-15T19:47:01.095Z,3.45
2022-09-15T19:51:19.312Z,5.85
2022-09-15T19:55:36.433Z,3.00
2022-09-15T19:59:53.586Z,3.80
2022-09-15T20:04:12.082Z,3.40
2022-09-15T20:08:29.282Z,4.32
2022-09-15T20:12:46.378Z,2.45
2022-09-15T20:17:04.034Z,3.45
2022-09-15T20:21:48.574Z,8.85
2022-09-15T20:26:08.345Z,2.53
2022-09-15T20:30:25.536Z,3.50
2022-09-15T20:34:42.817Z,3.55
2022-09-15T20:39:03.170Z,6.95
2022-09-15T20:43:20.337Z,6.35
2022-09-15T20:47:37.486Z,5.45
2022-09-15T20:51:55.208Z,4.22
2022-09-15T20:56:14.484Z,6.80
2022-09-15T21:00:33.854Z,6.80
2022-09-15T21:04:51.225Z,4.85
2022-09-15T21:09:08.631Z,3.92
2022-09-15T21:13:29.803Z,4.25
2022-09-15T21:17:46.925Z,3.67
2022-09-15T21:22:04.033Z,3.13
2022-09-15T21:26:24.070Z,3.15
2022-09-15T21:30:41.376Z,6.43
2022-09-15T21:35:00.011Z,2.60
2022-09-15T21:39:17.154Z,6.18
2022-09-15T21:43:37.309Z,3.72
2022-09-15T21:47:54.425Z,4.95
2022-09-15T21:52:11.900Z,4.00
2022-09-15T21:56:30.158Z,4.45
2022-09-15T22:00:49.186Z,5.47
2022-09-15T22:05:06.687Z,5.35
2022-09-15T22:09:24.128Z,6.53
2022-09-15T22:13:43.551Z,7.13
2022-09-15T22:18:00.994Z,3.35
2022-09-15T22:22:18.352Z,5.93
2022-09-15T22:26:37.490Z,3.83
2022-09-15T22:31:02.165Z,4.40
2022-09-15T22:35:19.967Z,3.28
2022-09-15T22:39:57.755Z,5.53
2022-09-15T22:44:20.078Z,4.53
2022-09-15T22:48:41.120Z,9.38
2022-09-15T22:53:00.604Z,5.68
2022-09-15T22:57:17.716Z,6.47
2022-09-15T23:01:34.897Z,3.28
2022-09-15T23:05:58.247Z,5.88
2022-09-15T23:10:15.411Z,3.40
2022-09-15T23:14:32.641Z,4.85
2022-09-15T23:18:51.007Z,3.78
2022-09-15T23:23:08.083Z,6.55
2022-09-15T23:27:25.196Z,4.13
2022-09-15T23:31:42.325Z,5.25
2022-09-15T23:36:00.333Z,3.83
2022-09-15T23:40:17.445Z,4.22
2022-09-15T23:44:34.566Z,5.85
2022-09-15T23:48:51.757Z,4.93
2022-09-15T23:53:09.543Z,3.00
2022-09-15T23:57:26.701Z,4.45
